Time;durP1;ratioP1;P1;durP2;ratioP2;P2;SDS_P1;SDS_P2;PMS_P1;PMS_P2;Temp;Humidity;BMP_temperature;BMP_pressure;BME280_temperature;BME280_humidity;BME280_pressure;Samples;Min_cycle;Max_cycle;Signal;HPM_P1;HPM_P2
2022/10/29 00:00:11;;;;;;;;;;;17.60;99.90;17.90;100273.00;;;;337546;28;91468;-92
2022/10/29 00:00:23;;;;;;;;;;;17.60;99.90;18.00;100275.00;;;;339004;28;83677;-94
2022/10/29 00:00:35;;;;;;;;;;;17.70;99.90;17.90;100270.00;;;;337562;28;91251;-94
2022/10/29 00:00:50;;;;;;;;;;;17.60;99.90;17.90;100265.00;;;;337952;28;83428;-93
2022/10/29 00:01:02;;;;;;;;;;;17.70;99.90;17.90;100269.00;;;;337408;28;91179;-93
2022/10/29 00:01:14;;;;;;;;;;;17.60;99.90;18.00;100262.00;;;;339283;28;83201;-93
2022/10/29 00:01:26;;;;;;;;;;;17.60;99.90;18.10;100259.00;;;;337497;28;90603;-93
2022/10/29 00:01:37;;;;;;;;;;;17.60;99.90;18.00;100265.00;;;;339328;28;82732;-93
2022/10/29 00:01:49;;;;;;;;;;;17.60;99.90;18.00;100270.00;;;;337180;28;91379;-93
2022/10/29 00:02:01;;;;;;;;;;;17.60;99.90;17.90;100270.00;;;;337963;28;83527;-93
2022/10/29 00:02:13;;;;;;;;;;;17.60;99.90;17.80;100271.00;;;;338769;28;91025;-93
2022/10/29 00:02:25;;;;;;;;;;;17.70;99.90;17.80;100270.00;;;;337478;28;83479;-93
2022/10/29 00:02:37;;;;;;;;;;;17.70;99.90;17.90;100272.00;;;;337589;28;90576;-93
2022/10/29 00:02:49;;;;;;;;;;;17.60;99.90;17.80;100273.00;;;;337966;28;82502;-93
2022/10/29 00:03:00;;;;;;;;;;;17.70;99.90;17.80;100272.00;;;;337365;28;91370;-93
2022/10/29 00:03:13;;;;;;;;;;;17.60;99.90;17.90;100259.00;;;;343911;28;83449;-94
2022/10/29 00:03:25;;;;;;;;;;;17.60;99.90;17.90;100266.00;;;;336692;28;90123;-93
2022/10/29 00:03:37;;;;;;;;;;;17.70;99.90;17.90;100267.00;;;;337927;28;82536;-93
2022/10/29 00:03:48;;;;;;;;;;;17.60;99.90;17.90;100262.00;;;;339970;28;90420;-93
2022/10/29 00:04:00;;;;;;;;;;;17.60;99.90;17.90;100263.00;;;;339043;28;83467;-93
2022/10/29 00:04:12;;;;;;;;;;;17.70;99.90;17.90;100271.00;;;;338725;28;90836;-93
2022/10/29 00:04:23;;;;;;;;;;;17.60;99.90;17.80;100270.00;;;;339139;28;82625;-93
2022/10/29 00:04:35;;;;;;;;;;;17.60;99.90;17.90;100265.00;;;;340918;28;90520;-94
2022/10/29 00:04:47;;;;;;;;;;;17.60;99.90;17.90;100269.00;;;;340492;28;83531;-94
2022/10/29 00:04:58;;;;;;;;;;;17.60;99.90;18.00;100273.00;;;;338774;28;92714;-92
2022/10/29 00:05:10;;;;;;;;;;;17.70;99.90;18.00;100263.00;;;;340461;28;82580;-94
2022/10/29 00:05:22;;;;;;;;;;;17.60;99.90;18.10;100264.00;;;;340097;28;89747;-94
2022/10/29 00:05:34;;;;;;;;;;;17.70;99.90;18.20;100271.00;;;;340512;28;82640;-94
2022/10/29 00:06:00;;;;;;;;;;;17.70;99.90;18.10;100272.00;;;;338666;28;90740;-93
2022/10/29 00:06:12;;;;;;;;;;;17.70;99.90;18.10;100265.00;;;;338042;28;82420;-93
2022/10/29 00:06:24;;;;;;;;;;;17.70;99.90;18.00;100269.00;;;;338651;28;90195;-93
2022/10/29 00:06:36;;;;;;;;;;;17.70;99.90;18.00;100270.00;;;;339184;28;82550;-93
2022/10/29 00:06:47;;;;;;;;;;;17.70;99.90;17.90;100261.00;;;;338674;28;89596;-94
2022/10/29 00:07:00;;;;;;;;;;;17.70;99.90;17.90;100265.00;;;;339360;28;82489;-94
2022/10/29 00:07:12;;;;;;;;;;;17.70;99.90;18.00;100265.00;;;;340054;28;92450;-93
2022/10/29 00:07:24;;;;;;;;;;;17.70;99.90;18.00;100269.00;;;;337940;28;82728;-93
2022/10/29 00:07:35;;;;;;;;;;;17.70;99.90;18.00;100265.00;;;;343084;28;90192;-94
2022/10/29 00:07:47;;;;;;;;;;;17.70;99.90;18.00;100266.00;;;;337859;28;83457;-93
2022/10/29 00:07:59;;;;;;;;;;;17.70;99.90;18.00;100266.00;;;;344080;28;91271;-94
2022/10/29 00:08:11;;;;;;;;;;;17.70;99.90;18.10;100266.00;;;;340821;28;82580;-94
2022/10/29 00:08:22;;;;;;;;;;;17.70;99.90;18.10;100273.00;;;;337761;28;93088;-93
2022/10/29 00:08:35;;;;;;;;;;;17.70;99.90;18.10;100264.00;;;;339011;28;83527;-94
2022/10/29 00:08:47;;;;;;;;;;;17.70;99.90;18.00;100264.00;;;;338881;28;90848;-92
2022/10/29 00:08:59;;;;;;;;;;;17.70;99.90;18.00;100267.00;;;;339319;28;82542;-93
2022/10/29 00:09:10;;;;;;;;;;;17.70;99.90;18.00;100266.00;;;;336145;28;93068;-93
2022/10/29 00:09:22;;;;;;;;;;;17.70;99.90;18.10;100265.00;;;;339169;28;83485;-93
2022/10/29 00:09:34;;;;;;;;;;;17.70;99.90;18.10;100268.00;;;;338724;28;91286;-93
2022/10/29 00:09:46;;;;;;;;;;;17.70;99.90;18.00;100268.00;;;;337870;28;82528;-93
2022/10/29 00:09:57;;;;;;;;;;;17.70;99.90;18.10;100266.00;;;;336229;28;91014;-94
2022/10/29 00:10:09;;;;;;;;;;;17.70;99.90;18.10;100261.00;;;;339316;28;82459;-94
2022/10/29 00:10:21;;;;;;;;;;;17.70;99.90;18.00;100259.00;;;;337564;28;90944;-94
2022/10/29 00:10:33;;;;;;;;;;;17.70;99.90;18.00;100259.00;;;;346174;28;82614;-94
2022/10/29 00:10:45;;;;;;;;;;;17.70;99.90;18.00;100261.00;;;;336076;28;91364;-95
2022/10/29 00:11:09;;;;;;;;;;;17.70;99.90;18.10;100260.00;;;;337884;28;83506;-93
2022/10/29 00:11:21;;;;;;;;;;;17.70;99.90;18.00;100259.00;;;;339942;28;92248;-94
2022/10/29 00:11:33;;;;;;;;;;;17.70;99.90;18.00;100254.00;;;;338310;28;83553;-93
2022/10/29 00:11:45;;;;;;;;;;;17.80;99.90;18.00;100247.00;;;;340101;28;91599;-93
2022/10/29 00:11:56;;;;;;;;;;;17.70;99.90;18.00;100255.00;;;;340549;28;82530;-94
2022/10/29 00:12:08;;;;;;;;;;;17.70;99.90;18.00;100258.00;;;;337498;28;91553;-94
2022/10/29 00:12:20;;;;;;;;;;;17.70;99.90;18.00;100260.00;;;;341841;28;82559;-93
2022/10/29 00:12:32;;;;;;;;;;;17.70;99.90;18.00;100256.00;;;;337587;28;90335;-94
2022/10/29 00:12:43;;;;;;;;;;;17.80;99.90;18.00;100258.00;;;;344798;28;82598;-94
2022/10/29 00:12:58;;;;;;;;;;;17.70;99.90;18.00;100255.00;;;;337543;28;91435;-93
2022/10/29 00:13:10;;;;;;;;;;;17.70;99.90;18.10;100257.00;;;;338015;28;83603;-94
2022/10/29 00:13:22;;;;;;;;;;;17.70;99.90;18.00;100257.00;;;;338837;28;92610;-95
2022/10/29 00:13:34;;;;;;;;;;;17.70;99.90;18.00;100259.00;;;;341857;28;83061;-93
2022/10/29 00:13:47;;;;;;;;;;;17.70;99.90;17.90;100261.00;;;;338571;28;89966;-93
2022/10/29 00:13:59;;;;;;;;;;;17.70;99.90;18.00;100255.00;;;;339192;28;83453;-94
2022/10/29 00:14:12;;;;;;;;;;;17.70;99.90;18.00;100254.00;;;;337610;28;89527;-93
2022/10/29 00:14:24;;;;;;;;;;;17.70;99.90;18.00;100256.00;;;;339309;28;82601;-94
2022/10/29 00:14:36;;;;;;;;;;;17.70;99.90;18.00;100255.00;;;;338781;28;91697;-93
2022/10/29 00:14:47;;;;;;;;;;;17.70;99.90;18.00;100255.00;;;;339193;28;82549;-93
2022/10/29 00:14:59;;;;;;;;;;;17.70;99.90;18.00;100258.00;;;;337389;28;91423;-93
2022/10/29 00:15:11;;;;;;;;;;;17.70;99.90;17.90;100244.00;;;;340381;28;83608;-95
2022/10/29 00:15:23;;;;;;;;;;;17.70;99.90;18.00;100250.00;;;;345956;28;90559;-94
2022/10/29 00:15:35;;;;;;;;;;;17.70;99.90;18.00;100254.00;;;;336631;28;83533;-94
2022/10/29 00:15:46;;;;;;;;;;;17.70;99.90;18.00;100252.00;;;;339917;28;91503;-94
2022/10/29 00:15:58;;;;;;;;;;;17.70;99.90;18.10;100252.00;;;;337883;28;83446;-95
2022/10/29 00:16:12;;;;;;;;;;;17.70;99.90;18.00;100253.00;;;;336271;28;91452;-93
2022/10/29 00:16:25;;;;;;;;;;;17.70;99.90;18.00;100251.00;;;;336477;28;83515;-93
2022/10/29 00:16:38;;;;;;;;;;;17.70;99.90;18.00;100253.00;;;;338415;28;89610;-96
2022/10/29 00:16:49;;;;;;;;;;;17.70;99.90;18.10;100253.00;;;;338016;28;83534;-93
2022/10/29 00:17:01;;;;;;;;;;;17.70;99.90;18.00;100254.00;;;;338840;28;91421;-93
2022/10/29 00:17:14;;;;;;;;;;;17.70;99.90;18.00;100252.00;;;;338127;28;82604;-92
2022/10/29 00:17:26;;;;;;;;;;;17.70;99.90;18.10;100249.00;;;;336547;28;92385;-94
2022/10/29 00:17:38;;;;;;;;;;;17.70;99.90;18.00;100250.00;;;;339124;28;83451;-94
2022/10/29 00:17:50;;;;;;;;;;;17.70;99.90;18.10;100255.00;;;;338676;28;89637;-94
2022/10/29 00:18:01;;;;;;;;;;;17.70;99.90;18.00;100257.00;;;;338256;28;82519;-95
2022/10/29 00:18:13;;;;;;;;;;;17.70;99.90;18.10;100255.00;;;;337536;28;90624;-94
2022/10/29 00:18:25;;;;;;;;;;;17.80;99.90;18.10;100260.00;;;;340521;28;83436;-93
2022/10/29 00:18:37;;;;;;;;;;;17.80;99.90;18.10;100255.00;;;;340097;28;91461;-93
2022/10/29 00:18:48;;;;;;;;;;;17.80;99.90;18.10;100256.00;;;;339196;28;83655;-94
2022/10/29 00:19:00;;;;;;;;;;;17.80;99.90;18.10;100247.00;;;;338849;28;90419;-94
2022/10/29 00:19:12;;;;;;;;;;;17.80;99.90;18.10;100249.00;;;;339171;28;82495;-94
2022/10/29 00:19:24;;;;;;;;;;;17.80;99.90;18.10;100256.00;;;;341496;28;92477;-94
2022/10/29 00:19:36;;;;;;;;;;;17.80;99.90;18.10;100247.00;;;;340602;28;83432;-95
2022/10/29 00:19:48;;;;;;;;;;;17.80;99.90;18.10;100255.00;;;;337356;28;91316;-93
2022/10/29 00:20:00;;;;;;;;;;;17.80;99.90;18.20;100254.00;;;;336632;28;82554;-93
2022/10/29 00:20:12;;;;;;;;;;;17.80;99.90;18.20;100251.00;;;;338701;28;89456;-94
2022/10/29 00:20:23;;;;;;;;;;;17.80;99.90;18.20;100257.00;;;;338991;28;83376;-93
2022/10/29 00:20:35;;;;;;;;;;;17.80;99.90;18.10;100260.00;;;;338772;28;91001;-94
2022/10/29 00:20:48;;;;;;;;;;;17.80;99.90;18.10;100256.00;;;;340529;28;82575;-94
2022/10/29 00:21:01;;;;;;;;;;;17.80;99.90;18.10;100245.00;;;;338780;28;91374;-93
2022/10/29 00:21:18;;;;;;;;;;;17.80;99.90;18.10;100247.00;;;;339244;28;83472;-93
2022/10/29 00:21:30;;;;;;;;;;;17.80;99.90;18.00;100242.00;;;;340063;28;91680;-93
2022/10/29 00:21:41;;;;;;;;;;;17.80;99.90;18.00;100251.00;;;;339021;28;83529;-93
2022/10/29 00:21:53;;;;;;;;;;;17.80;99.90;18.00;100250.00;;;;334867;28;90286;-95
2022/10/29 00:22:05;;;;;;;;;;;17.80;99.90;18.10;100249.00;;;;337927;28;82572;-93
2022/10/29 00:22:16;;;;;;;;;;;17.80;99.90;18.10;100251.00;;;;337458;28;91564;-94
2022/10/29 00:22:28;;;;;;;;;;;17.80;99.90;18.10;100247.00;;;;340456;28;83504;-93
2022/10/29 00:22:40;;;;;;;;;;;17.80;99.90;18.00;100246.00;;;;340145;28;90360;-95
2022/10/29 00:22:52;;;;;;;;;;;17.80;99.90;18.00;100250.00;;;;337916;28;82532;-93
2022/10/29 00:23:05;;;;;;;;;;;17.80;99.90;18.00;100245.00;;;;337443;28;90494;-93
2022/10/29 00:23:16;;;;;;;;;;;17.80;99.90;18.00;100245.00;;;;337877;28;83541;-94
2022/10/29 00:23:28;;;;;;;;;;;17.80;99.90;18.00;100243.00;;;;338608;28;91175;-94
2022/10/29 00:23:40;;;;;;;;;;;17.80;99.90;18.00;100243.00;;;;337755;28;83566;-93
2022/10/29 00:23:52;;;;;;;;;;;17.80;99.90;18.00;100250.00;;;;336762;28;90945;-93
2022/10/29 00:24:04;;;;;;;;;;;17.80;99.90;18.00;100244.00;;;;337865;28;83915;-94
2022/10/29 00:24:16;;;;;;;;;;;17.80;99.90;18.00;100242.00;;;;337554;28;91232;-94
2022/10/29 00:24:28;;;;;;;;;;;17.80;99.90;18.00;100243.00;;;;337783;28;83505;-93
2022/10/29 00:24:39;;;;;;;;;;;17.70;99.90;17.90;100240.00;;;;337435;28;91560;-94
2022/10/29 00:24:51;;;;;;;;;;;17.70;99.90;17.90;100236.00;;;;337880;28;82628;-93
2022/10/29 00:25:03;;;;;;;;;;;17.80;99.90;17.90;100242.00;;;;336117;28;91774;-93
2022/10/29 00:25:15;;;;;;;;;;;17.70;99.90;18.00;100243.00;;;;339180;28;83348;-95
2022/10/29 00:25:27;;;;;;;;;;;17.70;99.90;18.00;100239.00;;;;337429;28;91547;-95
2022/10/29 00:25:39;;;;;;;;;;;17.70;99.90;18.00;100236.00;;;;337886;28;83231;-93
2022/10/29 00:25:55;;;;;;;;;;;17.70;99.90;17.90;100234.00;;;;338161;28;90193;-94
2022/10/29 00:26:07;;;;;;;;;;;17.70;99.90;18.00;100243.00;;;;339478;28;83510;-94
2022/10/29 00:26:20;;;;;;;;;;;17.70;99.90;18.00;100241.00;;;;337712;28;91104;-94
2022/10/29 00:26:32;;;;;;;;;;;17.70;99.90;18.00;100236.00;;;;338657;28;83575;-93
2022/10/29 00:26:44;;;;;;;;;;;17.70;99.90;18.00;100238.00;;;;336176;28;91200;-94
2022/10/29 00:26:56;;;;;;;;;;;17.70;99.90;17.90;100238.00;;;;339316;28;83384;-93
2022/10/29 00:27:08;;;;;;;;;;;17.70;99.90;17.90;100237.00;;;;338827;28;91622;-92
2022/10/29 00:27:19;;;;;;;;;;;17.70;99.90;17.90;100236.00;;;;340008;28;83528;-93
2022/10/29 00:27:31;;;;;;;;;;;17.70;99.90;17.80;100239.00;;;;340035;28;90379;-95
2022/10/29 00:27:43;;;;;;;;;;;17.70;99.90;17.80;100240.00;;;;337852;28;82566;-93
2022/10/29 00:27:55;;;;;;;;;;;17.70;99.90;17.80;100239.00;;;;337403;28;90100;-94
2022/10/29 00:28:07;;;;;;;;;;;17.70;99.90;17.70;100237.00;;;;344910;28;83375;-93
2022/10/29 00:28:19;;;;;;;;;;;17.70;99.90;17.70;100236.00;;;;337407;28;90163;-93
2022/10/29 00:28:31;;;;;;;;;;;17.60;99.90;17.80;100240.00;;;;339075;28;83585;-94
2022/10/29 00:28:43;;;;;;;;;;;17.70;99.90;17.80;100236.00;;;;337490;28;91106;-94
2022/10/29 00:28:55;;;;;;;;;;;17.70;99.90;17.90;100234.00;;;;339201;28;83467;-94
2022/10/29 00:29:07;;;;;;;;;;;17.70;99.90;17.90;100238.00;;;;336124;28;91545;-93
2022/10/29 00:29:18;;;;;;;;;;;17.70;99.90;17.90;100243.00;;;;339176;28;83581;-93
2022/10/29 00:29:30;;;;;;;;;;;17.60;99.90;17.90;100235.00;;;;336039;28;92476;-93
2022/10/29 00:29:42;;;;;;;;;;;17.60;99.90;17.90;100239.00;;;;337834;28;82577;-93
2022/10/29 00:29:54;;;;;;;;;;;17.70;99.90;17.80;100242.00;;;;338533;28;91563;-94
2022/10/29 00:30:06;;;;;;;;;;;17.60;99.90;17.80;100240.00;;;;342387;28;83237;-93
2022/10/29 00:30:18;;;;;;;;;;;17.60;99.90;17.80;100239.00;;;;339766;28;88977;-92
2022/10/29 00:30:30;;;;;;;;;;;17.60;99.90;17.80;100241.00;;;;336439;28;83538;-94
2022/10/29 00:30:42;;;;;;;;;;;17.60;99.90;17.80;100234.00;;;;337458;28;90814;-93
2022/10/29 00:30:54;;;;;;;;;;;17.60;99.90;17.90;100239.00;;;;337963;28;83468;-93
2022/10/29 00:31:10;;;;;;;;;;;17.60;99.90;17.80;100237.00;;;;337501;28;90804;-94
2022/10/29 00:31:23;;;;;;;;;;;17.60;99.90;17.90;100242.00;;;;339993;28;82630;-93
2022/10/29 00:31:35;;;;;;;;;;;17.60;99.90;17.90;100239.00;;;;338557;28;92266;-94
2022/10/29 00:31:49;;;;;;;;;;;17.60;99.90;18.00;100235.00;;;;336382;28;82697;-92
2022/10/29 00:32:00;;;;;;;;;;;17.70;99.90;18.00;100241.00;;;;338704;28;89430;-94
2022/10/29 00:32:12;;;;;;;;;;;17.60;99.90;18.00;100242.00;;;;339088;28;82573;-93
2022/10/29 00:32:24;;;;;;;;;;;17.60;99.90;17.90;100237.00;;;;337167;28;90712;-93
2022/10/29 00:32:36;;;;;;;;;;;17.70;99.90;17.90;100245.00;;;;340367;28;82628;-94
2022/10/29 00:32:47;;;;;;;;;;;17.60;99.90;17.90;100240.00;;;;337344;28;91610;-93
2022/10/29 00:32:59;;;;;;;;;;;17.70;99.90;18.00;100240.00;;;;339204;28;83483;-94
2022/10/29 00:33:11;;;;;;;;;;;17.60;99.90;18.00;100240.00;;;;341355;28;91253;-93
2022/10/29 00:33:23;;;;;;;;;;;17.60;99.90;18.00;100233.00;;;;337865;28;82304;-92
2022/10/29 00:33:35;;;;;;;;;;;17.70;99.90;18.10;100246.00;;;;338738;28;91153;-93
2022/10/29 00:33:46;;;;;;;;;;;17.70;99.90;18.10;100241.00;;;;339095;28;82693;-94
2022/10/29 00:33:58;;;;;;;;;;;17.70;99.90;17.90;100241.00;;;;340102;28;91495;-94
2022/10/29 00:34:10;;;;;;;;;;;17.70;99.90;17.90;100247.00;;;;340639;28;83410;-93
2022/10/29 00:34:22;;;;;;;;;;;17.70;99.90;17.90;100246.00;;;;338912;28;91607;-94
2022/10/29 00:34:34;;;;;;;;;;;17.70;99.90;17.90;100243.00;;;;337847;28;83439;-93
2022/10/29 00:34:45;;;;;;;;;;;17.70;99.90;17.90;100242.00;;;;338330;28;90783;-95
2022/10/29 00:34:57;;;;;;;;;;;17.70;99.90;17.90;100246.00;;;;339311;28;82672;-94
2022/10/29 00:35:09;;;;;;;;;;;17.70;99.90;17.90;100250.00;;;;337355;28;91887;-93
2022/10/29 00:35:21;;;;;;;;;;;17.70;99.90;17.80;100249.00;;;;337915;28;83520;-94
2022/10/29 00:35:33;;;;;;;;;;;17.70;99.90;17.80;100251.00;;;;337323;28;92280;-93
2022/10/29 00:35:57;;;;;;;;;;;17.70;99.90;17.70;100251.00;;;;337442;28;83567;-93
2022/10/29 00:36:14;;;;;;;;;;;17.60;99.90;17.70;100245.00;;;;338634;28;90085;-94
2022/10/29 00:36:27;;;;;;;;;;;17.60;99.90;17.70;100249.00;;;;339231;28;82443;-93
2022/10/29 00:36:38;;;;;;;;;;;17.60;99.90;17.70;100253.00;;;;337495;28;91020;-93
2022/10/29 00:36:50;;;;;;;;;;;17.60;99.90;17.80;100254.00;;;;339951;28;83586;-94
2022/10/29 00:37:03;;;;;;;;;;;17.60;99.90;17.80;100246.00;;;;340105;28;92172;-93
2022/10/29 00:37:15;;;;;;;;;;;17.60;99.90;17.80;100248.00;;;;339200;28;82575;-94
2022/10/29 00:37:27;;;;;;;;;;;17.70;99.90;17.80;100247.00;;;;336210;28;90842;-94
2022/10/29 00:37:39;;;;;;;;;;;17.60;99.90;17.80;100244.00;;;;335294;29;83435;-93
2022/10/29 00:37:51;;;;;;;;;;;17.60;99.90;17.80;100251.00;;;;339219;28;90739;-93
2022/10/29 00:38:03;;;;;;;;;;;17.60;99.90;17.70;100247.00;;;;339211;28;82534;-94
2022/10/29 00:38:15;;;;;;;;;;;17.60;99.90;17.70;100253.00;;;;337636;28;91655;-93
2022/10/29 00:38:27;;;;;;;;;;;17.60;99.90;17.70;100243.00;;;;339327;28;82554;-94
2022/10/29 00:38:39;;;;;;;;;;;17.60;99.90;17.60;100250.00;;;;336299;28;90355;-93
2022/10/29 00:38:51;;;;;;;;;;;17.60;99.90;17.60;100249.00;;;;338160;28;83433;-94
2022/10/29 00:39:03;;;;;;;;;;;17.60;99.90;17.70;100243.00;;;;343294;28;91503;-93
2022/10/29 00:39:15;;;;;;;;;;;17.60;99.90;17.70;100231.00;;;;346497;28;82645;-93
2022/10/29 00:39:28;;;;;;;;;;;17.60;99.90;17.70;100242.00;;;;341851;28;91777;-93
2022/10/29 00:39:40;;;;;;;;;;;17.60;99.90;17.70;100241.00;;;;336819;28;83395;-93
2022/10/29 00:39:51;;;;;;;;;;;17.60;99.90;17.80;100242.00;;;;338324;28;92115;-93
2022/10/29 00:40:03;;;;;;;;;;;17.60;99.90;17.80;100243.00;;;;338243;28;83334;-95
2022/10/29 00:40:15;;;;;;;;;;;17.60;99.90;17.80;100247.00;;;;339195;28;91257;-94
2022/10/29 00:40:27;;;;;;;;;;;17.60;99.90;17.70;100240.00;;;;336955;28;82546;-93
2022/10/29 00:40:39;;;;;;;;;;;17.60;99.90;17.70;100247.00;;;;337738;28;90582;-93
2022/10/29 00:40:51;;;;;;;;;;;17.60;99.90;17.70;100245.00;;;;340742;28;84217;-95
2022/10/29 00:41:03;;;;;;;;;;;17.60;99.90;17.70;100230.00;;;;336670;28;91227;-94
2022/10/29 00:41:17;;;;;;;;;;;17.60;99.90;17.70;100236.00;;;;338051;28;83422;-93
2022/10/29 00:41:29;;;;;;;;;;;17.60;99.90;17.60;100239.00;;;;337913;28;90732;-93
2022/10/29 00:41:40;;;;;;;;;;;17.60;99.90;17.70;100242.00;;;;338384;28;83459;-94
2022/10/29 00:41:52;;;;;;;;;;;17.50;99.90;17.70;100245.00;;;;339138;28;92510;-93
2022/10/29 00:42:04;;;;;;;;;;;17.50;99.90;17.70;100248.00;;;;338248;28;83554;-92
2022/10/29 00:42:16;;;;;;;;;;;17.50;99.90;17.70;100248.00;;;;338761;28;90408;-93
2022/10/29 00:42:28;;;;;;;;;;;17.50;99.90;17.70;100233.00;;;;347743;28;83432;-93
2022/10/29 00:42:40;;;;;;;;;;;17.50;99.90;17.70;100248.00;;;;338985;28;91261;-93
2022/10/29 00:42:51;;;;;;;;;;;17.50;99.90;17.70;100247.00;;;;343834;28;83442;-95
2022/10/29 00:43:16;;;;;;;;;;;17.50;99.90;17.80;100247.00;;;;336293;28;91535;-93
2022/10/29 00:43:28;;;;;;;;;;;17.50;99.90;17.80;100240.00;;;;337861;28;83735;-94
2022/10/29 00:43:42;;;;;;;;;;;17.50;99.90;17.80;100239.00;;;;337817;28;90155;-94
2022/10/29 00:44:22;;;;;;;;;;;17.50;99.90;17.90;100247.00;;;;338078;28;83406;-93
2022/10/29 00:44:35;;;;;;;;;;;17.50;99.90;18.00;100242.00;;;;338984;28;91570;-94
2022/10/29 00:44:46;;;;;;;;;;;17.60;99.90;18.00;100239.00;;;;338146;28;82510;-94
2022/10/29 00:44:58;;;;;;;;;;;17.50;99.90;17.90;100243.00;;;;340289;28;91483;-93
2022/10/29 00:45:28;;;;;;;;;;;17.60;99.90;17.90;100240.00;;;;339154;28;82660;-94
2022/10/29 00:46:10;;;;;;;;;;;17.60;99.90;17.80;100244.00;;;;340196;28;90654;-93
2022/10/29 00:46:33;;;;;;;;;;;17.60;99.90;17.70;100236.00;;;;338021;28;82685;-94
2022/10/29 00:46:46;;;;;;;;;;;17.60;99.90;17.70;100229.00;;;;336217;28;90374;-94
2022/10/29 00:47:18;;;;;;;;;;;17.60;99.90;17.70;100241.00;;;;334266;29;82671;-93
2022/10/29 00:47:31;;;;;;;;;;;17.50;99.90;17.60;100238.00;;;;334932;28;90390;-93
2022/10/29 00:47:43;;;;;;;;;;;17.50;99.90;17.50;100236.00;;;;336396;28;83408;-93
2022/10/29 00:47:54;;;;;;;;;;;17.50;99.90;17.50;100237.00;;;;334730;28;92476;-95
2022/10/29 00:48:07;;;;;;;;;;;17.50;99.90;17.60;100235.00;;;;335220;29;82482;-94
2022/10/29 00:48:19;;;;;;;;;;;17.50;99.90;17.70;100243.00;;;;333548;29;91066;-93
2022/10/29 00:48:35;;;;;;;;;;;17.50;99.90;17.70;100235.00;;;;336341;28;82412;-94
2022/10/29 00:48:49;;;;;;;;;;;17.50;99.90;17.80;100239.00;;;;333436;29;91572;-93
2022/10/29 00:49:01;;;;;;;;;;;17.50;99.90;17.90;100234.00;;;;336500;28;83479;-93
2022/10/29 00:49:13;;;;;;;;;;;17.50;99.90;18.00;100236.00;;;;334632;29;90222;-94
2022/10/29 00:49:24;;;;;;;;;;;17.50;99.90;18.00;100233.00;;;;335183;29;82576;-93
2022/10/29 00:49:36;;;;;;;;;;;17.60;99.90;17.90;100236.00;;;;336130;28;91418;-94
2022/10/29 00:50:09;;;;;;;;;;;17.60;99.90;17.70;100239.00;;;;335261;29;82498;-93
2022/10/29 00:50:21;;;;;;;;;;;17.60;99.90;17.80;100235.00;;;;337331;28;92553;-93
2022/10/29 00:50:33;;;;;;;;;;;17.50;99.90;17.80;100230.00;;;;335929;28;83690;-94
2022/10/29 00:50:44;;;;;;;;;;;17.50;99.90;17.80;100235.00;;;;333718;29;89122;-94
2022/10/29 00:50:56;;;;;;;;;;;17.50;99.90;17.80;100241.00;;;;335168;29;83452;-94
2022/10/29 00:51:09;;;;;;;;;;;17.50;99.90;17.80;100226.00;;;;335668;28;91696;-94
2022/10/29 00:51:20;;;;;;;;;;;17.50;99.90;17.80;100233.00;;;;335373;29;83517;-93
2022/10/29 00:51:32;;;;;;;;;;;17.50;99.90;17.80;100238.00;;;;336154;28;90892;-94
2022/10/29 00:51:44;;;;;;;;;;;17.50;99.90;17.70;100241.00;;;;337976;28;82554;-93
2022/10/29 00:51:56;;;;;;;;;;;17.50;99.90;17.70;100237.00;;;;340943;28;90761;-94
2022/10/29 00:52:08;;;;;;;;;;;17.50;99.90;17.70;100236.00;;;;334074;28;82520;-94
2022/10/29 00:52:20;;;;;;;;;;;17.50;99.90;17.70;100230.00;;;;341577;28;91039;-93
2022/10/29 00:52:32;;;;;;;;;;;17.50;99.90;17.70;100240.00;;;;337759;28;82510;-94
2022/10/29 00:52:44;;;;;;;;;;;17.50;99.90;17.70;100235.00;;;;337139;28;90549;-93
2022/10/29 00:52:56;;;;;;;;;;;17.50;99.90;17.70;100236.00;;;;336613;28;83522;-93
2022/10/29 00:53:08;;;;;;;;;;;17.50;99.90;17.70;100241.00;;;;335706;28;90886;-94
2022/10/29 00:53:21;;;;;;;;;;;17.50;99.90;17.70;100233.00;;;;336399;28;82458;-94
2022/10/29 00:53:35;;;;;;;;;;;17.50;99.90;17.70;100240.00;;;;336127;28;90527;-94
2022/10/29 00:53:49;;;;;;;;;;;17.50;99.90;17.60;100234.00;;;;335207;28;83619;-93
2022/10/29 00:54:06;;;;;;;;;;;17.50;99.90;17.50;100238.00;;;;333518;29;91802;-93
2022/10/29 00:54:18;;;;;;;;;;;17.50;99.90;17.50;100241.00;;;;335177;29;82492;-93
2022/10/29 00:54:31;;;;;;;;;;;17.50;99.90;17.60;100234.00;;;;333304;28;91497;-93
2022/10/29 00:54:43;;;;;;;;;;;17.40;99.90;17.60;100238.00;;;;334122;29;83292;-94
2022/10/29 00:54:55;;;;;;;;;;;17.50;99.90;17.80;100240.00;;;;337306;28;91017;-94
2022/10/29 00:55:07;;;;;;;;;;;17.50;99.90;17.80;100239.00;;;;336453;28;83490;-92
2022/10/29 00:55:19;;;;;;;;;;;17.40;99.90;17.90;100239.00;;;;336278;28;88340;-94
2022/10/29 00:55:30;;;;;;;;;;;17.50;99.90;17.80;100240.00;;;;334128;29;82751;-94
2022/10/29 00:55:42;;;;;;;;;;;17.50;99.90;17.80;100235.00;;;;336530;28;90572;-94
2022/10/29 00:55:54;;;;;;;;;;;17.50;99.90;17.60;100237.00;;;;339154;28;83519;-94
2022/10/29 00:56:06;;;;;;;;;;;17.50;99.90;17.70;100236.00;;;;336319;28;90447;-94
2022/10/29 00:56:17;;;;;;;;;;;17.50;99.90;17.70;100244.00;;;;335206;29;83584;-93
2022/10/29 00:56:31;;;;;;;;;;;17.50;99.90;17.80;100241.00;;;;334753;29;89729;-94
2022/10/29 00:56:46;;;;;;;;;;;17.50;99.90;17.90;100245.00;;;;333878;29;82525;-94
2022/10/29 00:57:06;;;;;;;;;;;17.50;99.90;17.80;100239.00;;;;333737;29;91261;-92
2022/10/29 00:57:28;;;;;;;;;;;17.50;99.90;17.70;100234.00;;;;338111;28;83631;-95
2022/10/29 00:57:45;;;;;;;;;;;17.50;99.90;17.60;100237.00;;;;335176;29;90823;-94
2022/10/29 00:57:57;;;;;;;;;;;17.50;99.90;17.50;100243.00;;;;335523;28;83508;-93
2022/10/29 00:58:09;;;;;;;;;;;17.50;99.90;17.50;100238.00;;;;336392;28;90992;-93
2022/10/29 00:58:21;;;;;;;;;;;17.40;99.90;17.50;100241.00;;;;335463;29;82551;-94
2022/10/29 00:58:33;;;;;;;;;;;17.50;99.90;17.50;100241.00;;;;334877;29;91447;-93
2022/10/29 00:58:45;;;;;;;;;;;17.40;99.90;17.50;100241.00;;;;336369;28;83517;-92
2022/10/29 00:58:56;;;;;;;;;;;17.40;99.90;17.40;100237.00;;;;334737;28;92739;-93
2022/10/29 00:59:08;;;;;;;;;;;17.40;99.90;17.30;100242.00;;;;333933;29;82750;-93
2022/10/29 00:59:20;;;;;;;;;;;17.40;99.90;17.40;100242.00;;;;334813;29;90841;-94
2022/10/29 00:59:31;;;;;;;;;;;17.40;99.90;17.50;100241.00;;;;336440;28;83455;-93
2022/10/29 00:59:43;;;;;;;;;;;17.40;99.90;17.60;100243.00;;;;334641;29;89579;-93
2022/10/29 00:59:55;;;;;;;;;;;17.40;99.90;17.60;100242.00;;;;333771;28;83282;-94
2022/10/29 01:00:07;;;;;;;;;;;17.40;99.90;17.70;100239.00;;;;334699;29;91487;-93
2022/10/29 01:00:19;;;;;;;;;;;17.40;99.90;17.60;100240.00;;;;335368;28;82558;-93
2022/10/29 01:00:31;;;;;;;;;;;17.40;99.90;17.60;100239.00;;;;338649;28;91498;-94
2022/10/29 01:00:43;;;;;;;;;;;17.40;99.90;17.70;100241.00;;;;337938;28;83388;-93
2022/10/29 01:00:55;;;;;;;;;;;17.40;99.90;17.80;100234.00;;;;334764;29;91069;-94
2022/10/29 01:01:06;;;;;;;;;;;17.40;99.90;17.80;100246.00;;;;335075;29;84024;-94
2022/10/29 01:01:18;;;;;;;;;;;17.40;99.90;17.80;100251.00;;;;332146;29;90884;-94
2022/10/29 01:01:30;;;;;;;;;;;17.40;99.90;17.60;100240.00;;;;336387;28;82584;-93
2022/10/29 01:01:43;;;;;;;;;;;17.40;99.90;17.70;100242.00;;;;334657;29;90050;-94
2022/10/29 01:01:55;;;;;;;;;;;17.50;99.90;17.70;100245.00;;;;335251;29;82531;-93
2022/10/29 01:02:07;;;;;;;;;;;17.40;99.90;17.60;100237.00;;;;334852;29;91712;-93
2022/10/29 01:02:19;;;;;;;;;;;17.40;99.90;17.70;100245.00;;;;341760;28;82534;-94
2022/10/29 01:02:31;;;;;;;;;;;17.40;99.90;17.70;100242.00;;;;341523;28;89245;-94